createdAt,value
2017-08-22T05:55:06.987Z,2.80
2017-08-22T05:57:35.348Z,2.50
2017-08-22T06:00:03.700Z,2.90
2017-08-22T06:02:32.047Z,2.33
2017-08-22T06:05:00.402Z,2.47
2017-08-22T06:07:28.757Z,2.63
2017-08-22T06:09:57.114Z,2.17
2017-08-22T06:12:25.606Z,2.37
2017-08-22T06:14:53.951Z,3.60
2017-08-22T06:17:22.303Z,2.70
2017-08-22T06:19:51.003Z,2.10
2017-08-22T06:22:19.352Z,2.20
2017-08-22T06:24:47.967Z,2.60
2017-08-22T06:27:16.316Z,2.20
2017-08-22T06:29:44.666Z,1.97
2017-08-22T06:32:13.022Z,1.90
2017-08-22T06:34:41.446Z,2.13
2017-08-22T06:37:09.803Z,2.10
2017-08-22T06:39:38.150Z,1.90
2017-08-22T06:42:06.735Z,2.13
2017-08-22T06:44:35.267Z,2.40
2017-08-22T06:47:03.603Z,1.70
2017-08-22T06:49:31.952Z,1.47
2017-08-22T06:52:00.307Z,1.50
2017-08-22T06:54:28.646Z,1.73
2017-08-22T06:56:56.994Z,1.37
2017-08-22T06:59:25.335Z,2.20
2017-08-22T07:01:53.707Z,1.53
2017-08-22T07:04:22.049Z,1.87
2017-08-22T07:06:50.409Z,1.50
2017-08-22T07:09:18.764Z,2.00
2017-08-22T07:11:47.272Z,1.70
2017-08-22T07:16:43.539Z,1.52
2017-08-22T07:19:11.967Z,1.93
2017-08-22T07:21:40.303Z,1.70
2017-08-22T07:24:08.700Z,1.90
2017-08-22T07:26:37.044Z,1.60
2017-08-22T07:29:05.408Z,1.20
2017-08-22T07:31:33.748Z,2.30
2017-08-22T07:34:02.104Z,1.53
2017-08-22T07:36:30.461Z,2.87
2017-08-22T07:38:58.811Z,2.10
2017-08-22T07:41:27.155Z,1.37
2017-08-22T07:43:55.517Z,2.30
2017-08-22T07:46:23.925Z,1.60
2017-08-22T07:48:52.288Z,2.33
2017-08-22T07:51:20.635Z,1.70
2017-08-22T07:53:49.292Z,1.70
2017-08-22T07:56:17.649Z,1.37
2017-08-22T07:58:45.996Z,2.40
2017-08-22T08:01:14.347Z,2.30
2017-08-22T08:03:42.704Z,2.33
2017-08-22T08:06:11.045Z,1.53
2017-08-22T08:08:39.386Z,2.40
2017-08-22T08:11:07.753Z,2.20
2017-08-22T08:13:36.105Z,2.00
2017-08-22T08:16:04.611Z,1.37
2017-08-22T08:18:32.960Z,1.57
2017-08-22T08:21:01.316Z,1.80
2017-08-22T08:23:29.661Z,2.13
2017-08-22T08:25:58.012Z,1.70
2017-08-22T08:28:26.376Z,1.90
2017-08-22T08:30:54.721Z,2.00
2017-08-22T08:33:23.078Z,1.70
2017-08-22T08:35:51.440Z,2.13
2017-08-22T08:38:19.797Z,2.23
2017-08-22T08:40:48.452Z,2.50
2017-08-22T08:43:16.979Z,3.03
2017-08-22T08:45:45.332Z,2.27
2017-08-22T08:48:13.688Z,2.50
2017-08-22T08:50:42.048Z,2.20
2017-08-22T08:53:10.402Z,2.23
2017-08-22T08:55:38.767Z,2.70
2017-08-22T08:58:07.117Z,2.47
2017-08-22T09:00:35.484Z,1.90
2017-08-22T09:03:03.839Z,1.40
2017-08-22T09:05:32.192Z,2.00
2017-08-22T09:08:00.544Z,1.87
2017-08-22T09:10:29.268Z,2.77
2017-08-22T09:12:57.626Z,2.93
2017-08-22T09:15:25.980Z,1.60
2017-08-22T09:17:54.653Z,1.90
2017-08-22T09:20:23.027Z,3.13
2017-08-22T09:22:51.413Z,2.27
2017-08-22T09:25:19.768Z,2.03
2017-08-22T09:27:48.129Z,1.87
2017-08-22T09:30:16.474Z,1.90
2017-08-22T09:32:45.133Z,1.87
2017-08-22T09:35:13.481Z,2.30
2017-08-22T09:37:42.054Z,1.17
2017-08-22T09:40:10.403Z,1.77
2017-08-22T09:42:38.761Z,2.30
2017-08-22T09:45:07.186Z,1.60
2017-08-22T09:47:35.616Z,1.77
2017-08-22T09:50:03.989Z,1.70
2017-08-22T09:52:32.344Z,1.87
2017-08-22T09:55:00.694Z,2.13
2017-08-22T09:57:29.049Z,1.60
2017-08-22T09:59:57.416Z,1.47
2017-08-22T10:02:25.773Z,1.67
2017-08-22T10:04:54.530Z,1.70
2017-08-22T10:07:22.874Z,1.80
2017-08-22T10:09:51.282Z,2.43
2017-08-22T10:12:19.634Z,1.50
2017-08-22T10:15:18.259Z,1.30
2017-08-22T10:17:46.602Z,2.50
2017-08-22T10:20:14.943Z,1.60
2017-08-22T10:22:43.305Z,1.97
2017-08-22T10:25:11.651Z,1.57
2017-08-22T10:27:40.039Z,1.50
2017-08-22T10:30:08.390Z,1.53
2017-08-22T10:32:36.761Z,1.70
2017-08-22T10:35:05.117Z,1.47
2017-08-22T10:37:33.560Z,1.57
2017-08-22T10:40:01.903Z,1.90
2017-08-22T10:42:30.440Z,1.83
2017-08-22T10:44:58.793Z,1.73
2017-08-22T10:47:27.135Z,1.43
2017-08-22T10:49:55.483Z,1.60
2017-08-22T10:52:23.823Z,1.57
2017-08-22T10:54:52.182Z,1.40
2017-08-22T10:57:20.532Z,1.43
2017-08-22T10:59:48.882Z,1.43
2017-08-22T11:02:17.224Z,1.27
2017-08-22T11:04:45.631Z,1.30
2017-08-22T11:07:13.981Z,2.30
2017-08-22T11:09:42.520Z,1.50
2017-08-22T11:12:10.873Z,1.50
2017-08-22T11:14:39.225Z,1.70
2017-08-22T11:17:07.581Z,2.37
2017-08-22T11:19:35.919Z,2.00
2017-08-22T11:22:04.285Z,1.63
2017-08-22T11:24:32.637Z,1.60
2017-08-22T11:27:00.990Z,1.60
2017-08-22T11:29:29.349Z,1.80
2017-08-22T11:31:57.720Z,2.23
2017-08-22T11:34:26.086Z,2.43
2017-08-22T11:36:54.476Z,1.60
2017-08-22T11:39:22.821Z,1.63
2017-08-22T11:41:51.182Z,1.70
2017-08-22T11:44:19.559Z,2.43
2017-08-22T11:46:47.909Z,1.30
2017-08-22T11:49:16.268Z,1.33
2017-08-22T11:51:44.632Z,1.60
2017-08-22T11:54:13.006Z,1.57
2017-08-22T11:56:41.357Z,1.80
2017-08-22T11:59:09.717Z,1.93
2017-08-22T12:01:38.060Z,1.70
2017-08-22T12:04:06.416Z,1.87
2017-08-22T12:06:34.769Z,1.43
2017-08-22T12:09:03.115Z,1.97
2017-08-22T12:11:31.477Z,1.77
2017-08-22T12:13:59.852Z,1.73
2017-08-22T12:16:28.204Z,2.00
2017-08-22T12:18:56.875Z,2.10
2017-08-22T12:21:25.236Z,1.53
2017-08-22T12:23:53.595Z,1.43
2017-08-22T12:26:21.954Z,2.00
2017-08-22T12:28:50.452Z,1.93
2017-08-22T12:31:18.957Z,2.10
2017-08-22T12:33:47.309Z,1.70
2017-08-22T12:36:15.655Z,2.17
2017-08-22T12:38:44.008Z,2.50
2017-08-22T12:41:12.365Z,1.70
2017-08-22T12:43:40.719Z,2.30
2017-08-22T12:46:09.076Z,1.73
2017-08-22T12:48:37.427Z,1.97
2017-08-22T12:51:05.781Z,2.33
2017-08-22T12:53:34.261Z,1.83
2017-08-22T12:56:02.599Z,1.73
2017-08-22T12:58:30.948Z,1.93
2017-08-22T13:00:59.308Z,2.00
2017-08-22T13:03:27.661Z,1.90
2017-08-22T13:05:56.403Z,2.17
2017-08-22T13:08:24.758Z,2.23
2017-08-22T13:10:53.120Z,2.20
2017-08-22T13:13:21.475Z,1.83
2017-08-22T13:15:49.828Z,1.67
2017-08-22T13:18:18.237Z,1.70
2017-08-22T13:20:46.845Z,1.83
2017-08-22T13:23:15.196Z,1.63
2017-08-22T13:25:43.578Z,1.80
2017-08-22T13:28:11.931Z,1.80
2017-08-22T13:30:40.286Z,2.37
2017-08-22T13:33:08.652Z,1.30
2017-08-22T13:35:37.005Z,2.03
2017-08-22T13:38:05.390Z,1.30
2017-08-22T13:40:33.727Z,1.33
2017-08-22T13:43:02.079Z,1.30
2017-08-22T13:45:30.440Z,1.60
2017-08-22T13:47:58.800Z,1.73
2017-08-22T13:50:27.158Z,1.80
2017-08-22T13:52:55.516Z,1.80
2017-08-22T13:55:23.865Z,1.40
2017-08-22T13:57:52.224Z,1.90
2017-08-22T14:00:20.566Z,1.80
2017-08-22T14:02:49.098Z,1.20
2017-08-22T14:05:17.453Z,1.50
2017-08-22T14:07:45.808Z,2.00
2017-08-22T14:10:14.159Z,1.53
2017-08-22T14:12:42.516Z,2.30
2017-08-22T14:15:10.885Z,1.43
2017-08-22T14:17:39.227Z,1.60
2017-08-22T14:20:07.575Z,1.50
2017-08-22T14:22:35.932Z,1.40
2017-08-22T14:25:04.283Z,1.80
2017-08-22T14:27:32.644Z,1.20
2017-08-22T14:30:01.008Z,1.03
2017-08-22T14:32:29.363Z,1.40
2017-08-22T14:34:57.982Z,2.03
2017-08-22T14:37:26.330Z,1.63
2017-08-22T14:39:54.675Z,1.43
2017-08-22T14:42:23.037Z,1.50
2017-08-22T14:44:51.392Z,1.47
2017-08-22T14:47:19.743Z,1.43
2017-08-22T14:49:48.083Z,1.27
2017-08-22T14:52:16.827Z,1.83
2017-08-22T14:54:45.170Z,3.83
2017-08-22T14:57:13.541Z,1.63
2017-08-22T14:59:41.883Z,1.33
2017-08-22T15:02:10.253Z,1.20
2017-08-22T15:04:38.586Z,1.53
2017-08-22T15:07:07.068Z,2.10
2017-08-22T15:09:35.688Z,2.60
2017-08-22T15:12:04.040Z,3.60
2017-08-22T15:14:32.396Z,3.97
2017-08-22T15:17:00.748Z,2.20
2017-08-22T15:19:29.098Z,2.77
2017-08-22T15:21:57.450Z,3.63
2017-08-22T15:24:25.808Z,2.00
2017-08-22T15:26:54.161Z,2.30
2017-08-22T15:29:22.538Z,2.90
2017-08-22T15:31:50.894Z,1.70
2017-08-22T15:34:19.648Z,7.40
2017-08-22T15:36:48.005Z,4.20
2017-08-22T15:39:16.355Z,1.60
2017-08-22T15:41:44.728Z,2.07
2017-08-22T15:44:13.067Z,1.60
2017-08-22T15:46:41.448Z,1.77
2017-08-22T15:49:09.813Z,1.60
2017-08-22T15:51:38.164Z,1.33
2017-08-22T15:54:06.509Z,3.27
2017-08-22T15:56:34.972Z,2.30
2017-08-22T15:59:03.325Z,1.60
2017-08-22T16:01:31.689Z,1.63
2017-08-22T16:04:00.042Z,1.47
2017-08-22T16:06:28.482Z,1.77
2017-08-22T16:08:56.837Z,2.30
2017-08-22T16:11:25.547Z,4.43
2017-08-22T16:13:53.890Z,2.07
2017-08-22T16:16:22.245Z,2.70
2017-08-22T16:18:50.599Z,2.43
2017-08-22T16:21:18.948Z,1.90
2017-08-22T16:23:47.301Z,2.37
2017-08-22T16:26:15.653Z,1.70
2017-08-22T16:28:44.010Z,2.27
2017-08-22T16:31:12.627Z,3.03
2017-08-22T16:33:40.978Z,4.23
2017-08-22T16:36:09.340Z,1.80
2017-08-22T16:38:38.036Z,2.30
2017-08-22T16:41:06.383Z,1.60
2017-08-22T16:43:34.738Z,1.50
2017-08-22T16:46:03.082Z,1.70
2017-08-22T16:48:31.702Z,1.30
2017-08-22T16:51:00.050Z,1.70
2017-08-22T16:53:28.498Z,1.57
2017-08-22T16:55:56.862Z,2.10
2017-08-22T16:58:25.202Z,1.60
2017-08-22T17:00:53.557Z,1.60
2017-08-22T17:03:21.908Z,2.07
2017-08-22T17:05:50.422Z,2.17
2017-08-22T17:08:18.759Z,1.80
2017-08-22T17:10:47.109Z,1.73
2017-08-22T17:13:15.459Z,4.13
2017-08-22T17:15:43.804Z,3.80
2017-08-22T17:18:12.164Z,2.43
2017-08-22T17:20:40.964Z,1.83
2017-08-22T17:23:09.340Z,2.80
2017-08-22T17:25:37.683Z,1.73
2017-08-22T17:28:06.048Z,2.80
2017-08-22T17:30:34.398Z,2.17
2017-08-22T17:33:03.050Z,2.13
2017-08-22T17:35:31.395Z,2.17
2017-08-22T17:37:59.747Z,2.17
2017-08-22T17:40:28.090Z,1.87
2017-08-22T17:42:56.630Z,2.10
2017-08-22T17:45:24.990Z,2.97
2017-08-22T17:47:53.340Z,4.87
2017-08-22T17:50:21.699Z,2.23
2017-08-22T17:52:50.060Z,2.80
2017-08-22T17:55:18.437Z,2.00
2017-08-22T17:57:46.776Z,3.13
2017-08-22T18:00:15.145Z,2.30
2017-08-22T18:02:43.539Z,2.33
2017-08-22T18:05:11.900Z,2.20
2017-08-22T18:07:40.234Z,3.40
2017-08-22T18:10:08.818Z,1.83
2017-08-22T18:12:37.177Z,2.90
2017-08-22T18:15:05.773Z,2.57
2017-08-22T18:17:34.119Z,2.43
2017-08-22T18:20:02.469Z,2.90
2017-08-22T18:22:30.825Z,3.00
2017-08-22T18:24:59.428Z,3.13
2017-08-22T18:27:27.792Z,2.17
2017-08-22T18:29:56.148Z,2.00
2017-08-22T18:32:24.508Z,2.80
2017-08-22T18:34:52.851Z,2.40
2017-08-22T18:37:21.228Z,2.60
2017-08-22T18:39:49.570Z,2.70
2017-08-22T18:42:18.036Z,2.40
2017-08-22T18:44:46.387Z,3.30
2017-08-22T18:47:14.749Z,4.30
2017-08-22T18:49:43.192Z,3.57
2017-08-22T18:52:11.535Z,3.20
2017-08-22T18:54:39.893Z,2.60
2017-08-22T18:57:08.239Z,3.63
2017-08-22T18:59:36.604Z,3.20
2017-08-22T19:02:04.958Z,3.10
2017-08-22T19:04:33.325Z,3.17
2017-08-22T19:07:01.748Z,3.00
2017-08-22T19:09:30.832Z,4.60
2017-08-22T19:11:59.185Z,3.70
2017-08-22T19:14:27.541Z,3.70
2017-08-22T19:16:55.904Z,2.90
2017-08-22T19:19:24.252Z,5.20
2017-08-22T19:21:52.611Z,3.90
2017-08-22T19:24:20.963Z,4.50
2017-08-22T19:26:49.411Z,3.47
2017-08-22T19:29:17.755Z,2.90
2017-08-22T19:31:46.113Z,3.53
2017-08-22T19:34:14.469Z,4.33
2017-08-22T19:36:42.820Z,5.83
2017-08-22T19:39:11.176Z,3.80
2017-08-22T19:41:39.752Z,5.20
2017-08-22T19:44:08.105Z,4.70
2017-08-22T19:46:36.457Z,5.10
2017-08-22T19:49:04.824Z,4.30
2017-08-22T19:51:33.164Z,4.40
2017-08-22T19:54:01.559Z,5.20
2017-08-22T19:56:29.899Z,4.30
2017-08-22T19:58:58.295Z,5.03
2017-08-22T20:01:26.651Z,5.13
2017-08-22T20:03:55.020Z,5.10
2017-08-22T20:06:23.369Z,4.80
2017-08-22T20:08:51.745Z,5.70
2017-08-22T20:11:20.124Z,4.93
2017-08-22T20:13:48.603Z,4.63
2017-08-22T20:16:16.944Z,4.80
2017-08-22T20:18:45.355Z,5.30
2017-08-22T20:21:13.717Z,5.40
2017-08-22T20:23:42.069Z,5.40
2017-08-22T20:26:10.429Z,5.53
2017-08-22T20:28:38.884Z,5.57
2017-08-22T20:31:07.508Z,6.13
2017-08-22T20:33:35.866Z,5.77
2017-08-22T20:36:04.238Z,5.70
2017-08-22T20:38:32.580Z,5.57
2017-08-22T20:41:01.191Z,6.47
2017-08-22T20:43:29.581Z,6.10
2017-08-22T20:45:57.944Z,6.23
2017-08-22T20:48:26.313Z,7.00
2017-08-22T20:50:54.654Z,6.80
2017-08-22T20:53:23.017Z,6.90
2017-08-22T20:55:51.374Z,6.70
2017-08-22T20:58:19.738Z,6.50
2017-08-22T21:00:48.818Z,5.63
2017-08-22T21:03:17.176Z,5.50
2017-08-22T21:05:45.532Z,6.70
2017-08-22T21:08:14.331Z,6.73
2017-08-22T21:10:42.762Z,7.27
2017-08-22T21:13:11.126Z,6.70
2017-08-22T21:15:39.487Z,7.30
2017-08-22T21:18:07.835Z,6.67
2017-08-22T21:20:36.183Z,6.90
2017-08-22T21:23:04.548Z,7.57
2017-08-22T21:25:32.905Z,7.40
2017-08-22T21:28:01.722Z,7.67
2017-08-22T21:30:30.090Z,6.87
2017-08-22T21:32:58.450Z,5.93
2017-08-22T21:35:27.431Z,7.90
2017-08-22T21:37:55.782Z,6.93
2017-08-22T21:40:24.131Z,6.97
2017-08-22T21:42:52.493Z,7.13
2017-08-22T21:45:20.835Z,6.43
2017-08-22T21:47:49.209Z,6.80
2017-08-22T21:50:17.604Z,7.03
2017-08-22T21:52:45.956Z,6.57
2017-08-22T21:55:14.309Z,5.90
2017-08-22T21:57:42.660Z,6.67
2017-08-22T22:00:11.017Z,7.10
2017-08-22T22:02:39.377Z,7.43
2017-08-22T22:05:07.787Z,6.30
2017-08-22T22:07:36.324Z,6.30
2017-08-22T22:10:04.671Z,7.10
2017-08-22T22:12:33.014Z,6.37
2017-08-22T22:15:01.377Z,6.73
2017-08-22T22:17:29.728Z,7.17
2017-08-22T22:19:58.074Z,6.57
2017-08-22T22:22:26.435Z,7.40
2017-08-22T22:24:54.804Z,6.13
2017-08-22T22:27:23.142Z,6.10
2017-08-22T22:29:51.498Z,6.30
2017-08-22T22:32:19.861Z,6.87
2017-08-22T22:34:48.299Z,6.17
2017-08-22T22:37:16.640Z,5.90
2017-08-22T22:39:45.170Z,5.13
2017-08-22T22:42:13.546Z,5.60
2017-08-22T22:44:41.905Z,5.10
2017-08-22T22:47:10.255Z,5.03
2017-08-22T22:49:38.611Z,5.03
2017-08-22T22:52:06.967Z,5.77
2017-08-22T22:54:35.581Z,5.00
2017-08-22T22:57:03.950Z,5.33
2017-08-22T22:59:32.290Z,5.23
2017-08-22T23:02:00.924Z,5.70
2017-08-22T23:04:29.273Z,6.00
2017-08-22T23:06:57.638Z,4.70
2017-08-22T23:09:25.995Z,5.30
2017-08-22T23:11:54.507Z,5.33
